LKHS weather

Hosin Airport
Hosin, South Bohemian Region, Czechia

Public forecast

Using degrees Celsius for public forecast. Weather courtesy of forecast.io.

METAR (pilot weather report)

Closest report is Linz Hörsching Airport, 50.0 nm (92.5 km) SSW. Retrieved 2019/08/21 19:20 UTC (21 minutes ago):

LOWL 211920Z AUTO 03002KT 9999 NSC 14/12 Q1028 NOSIG

TAF (pilot weather forecast)

Closest forecast is Linz Hörsching Airport, 50.0 nm (92.5 km) SSW. Retrieved 2019/08/21 18:21 UTC (1 hour ago):

TAF LOWL 211715Z 2118/2218 08004KT 9999 FEW020 SCT050 TX24/2216Z TN14/2204Z BECMG 2206/2208 10008KT BECMG 2216/2218 VRB02KT